AUR658 EGJB-EGHI
Flight info
| Callsign | AUR658 |
|---|---|
| Flight time | 0h 23m |
| Altitude | 13000 |
| Route | ORTAC Q41 THRED |
| Aircraft | A320/M-SDE3FGHIRWY/LB1 |
Departure
| Time | 2026-04-22 17:38 |
|---|---|
| Airport | Guernsey Airport (EGJB) |
Arrival
| Time | 2026-04-22 18:02 |
|---|---|
| Airport | Southampton Airport (EGHI) |
| Time | Latitude | Longitude | Altitude | Speed | Heading |
|---|---|---|---|---|---|
| 2026-04-22 17:20 | 49.43259 | -2.59621 | 329 ft | 0 kts | 178° |
| 2026-04-22 17:31 | 49.43273 | -2.59621 | 314 ft | 4 kts | 178° |
| 2026-04-22 17:31 | 49.43300 | -2.59622 | 337 ft | 4 kts | 178° |
| 2026-04-22 17:31 | 49.43321 | -2.59623 | 325 ft | 4 kts | 178° |
| 2026-04-22 17:31 | 49.43345 | -2.59623 | 325 ft | 4 kts | 201° |
| 2026-04-22 17:32 | 49.43361 | -2.59599 | 325 ft | 4 kts | 258° |
| 2026-04-22 17:32 | 49.43363 | -2.59572 | 328 ft | 4 kts | 268° |
| 2026-04-22 17:32 | 49.43364 | -2.59556 | 327 ft | 1 kts | 267° |
| 2026-04-22 17:35 | 49.43364 | -2.59557 | 327 ft | 1 kts | 267° |
| 2026-04-22 17:35 | 49.43363 | -2.59630 | 326 ft | 13 kts | 268° |
| 2026-04-22 17:35 | 49.43354 | -2.59746 | 327 ft | 10 kts | 261° |
| 2026-04-22 17:35 | 49.43345 | -2.59862 | 322 ft | 12 kts | 266° |
| 2026-04-22 17:36 | 49.43342 | -2.59955 | 317 ft | 8 kts | 268° |
| 2026-04-22 17:36 | 49.43339 | -2.60093 | 307 ft | 18 kts | 267° |
| 2026-04-22 17:36 | 49.43332 | -2.60315 | 295 ft | 21 kts | 267° |
| 2026-04-22 17:36 | 49.43327 | -2.60516 | 296 ft | 15 kts | 267° |
| 2026-04-22 17:37 | 49.43337 | -2.60689 | 297 ft | 21 kts | 279° |
| 2026-04-22 17:37 | 49.43364 | -2.60958 | 309 ft | 31 kts | 270° |
| 2026-04-22 17:37 | 49.43358 | -2.61199 | 313 ft | 16 kts | 268° |
| 2026-04-22 17:37 | 49.43415 | -2.61343 | 316 ft | 16 kts | 325° |
| 2026-04-22 17:38 | 49.43469 | -2.61277 | 314 ft | 11 kts | 89° |
| 2026-04-22 17:38 | 49.43482 | -2.60777 | 310 ft | 89 kts | 88° |
| 2026-04-22 17:38 | 49.43522 | -2.59562 | 589 ft | 123 kts | 83° |
| 2026-04-22 17:38 | 49.43570 | -2.58219 | 1350 ft | 131 kts | 90° |
| 2026-04-22 17:39 | 49.43606 | -2.56706 | 1740 ft | 153 kts | 90° |
| 2026-04-22 17:39 | 49.43646 | -2.54940 | 2100 ft | 178 kts | 90° |
| 2026-04-22 17:39 | 49.44043 | -2.50664 | 3085 ft | 233 kts | 65° |
| 2026-04-22 17:40 | 49.45233 | -2.48820 | 3915 ft | 259 kts | 33° |
| 2026-04-22 17:40 | 49.47044 | -2.48122 | 4811 ft | 278 kts | 8° |
| 2026-04-22 17:40 | 49.49007 | -2.47931 | 5763 ft | 285 kts | 5° |
| 2026-04-22 17:40 | 49.51003 | -2.47817 | 6837 ft | 285 kts | 4° |
| 2026-04-22 17:41 | 49.53003 | -2.47721 | 7854 ft | 288 kts | 5° |
| 2026-04-22 17:41 | 49.55019 | -2.47615 | 8851 ft | 291 kts | 2° |
| 2026-04-22 17:41 | 49.57052 | -2.47496 | 9876 ft | 293 kts | 2° |
| 2026-04-22 17:41 | 49.59117 | -2.47301 | 10569 ft | 307 kts | 10° |
| 2026-04-22 17:42 | 49.61237 | -2.46308 | 10943 ft | 328 kts | 20° |
| 2026-04-22 17:42 | 49.63426 | -2.45118 | 11663 ft | 336 kts | 20° |
| 2026-04-22 17:42 | 49.65475 | -2.43448 | 12434 ft | 342 kts | 36° |
| 2026-04-22 17:42 | 49.67388 | -2.41207 | 13011 ft | 347 kts | 38° |
| 2026-04-22 17:43 | 49.69373 | -2.39086 | 13182 ft | 348 kts | 33° |
| 2026-04-22 17:43 | 49.71387 | -2.37014 | 13218 ft | 346 kts | 36° |
| 2026-04-22 17:43 | 49.73336 | -2.34836 | 13219 ft | 345 kts | 37° |
| 2026-04-22 17:43 | 49.75239 | -2.32577 | 13223 ft | 345 kts | 39° |
| 2026-04-22 17:44 | 49.77105 | -2.30247 | 13222 ft | 344 kts | 40° |
| 2026-04-22 17:44 | 49.78943 | -2.27876 | 13222 ft | 344 kts | 40° |
| 2026-04-22 17:44 | 49.80768 | -2.25482 | 13218 ft | 343 kts | 41° |
| 2026-04-22 17:44 | 49.82580 | -2.23097 | 13217 ft | 342 kts | 41° |
| 2026-04-22 17:45 | 49.84395 | -2.20718 | 13223 ft | 341 kts | 41° |
| 2026-04-22 17:45 | 49.86209 | -2.18356 | 13223 ft | 341 kts | 40° |
| 2026-04-22 17:45 | 49.88030 | -2.15992 | 13217 ft | 341 kts | 40° |
| 2026-04-22 17:45 | 49.89849 | -2.13627 | 13226 ft | 342 kts | 40° |
| 2026-04-22 17:46 | 49.91669 | -2.11258 | 13224 ft | 342 kts | 40° |
| 2026-04-22 17:46 | 49.93470 | -2.08914 | 13230 ft | 342 kts | 40° |
| 2026-04-22 17:46 | 49.95291 | -2.06539 | 13237 ft | 342 kts | 41° |
| 2026-04-22 17:46 | 49.97112 | -2.04161 | 13237 ft | 342 kts | 41° |
| 2026-04-22 17:47 | 49.98942 | -2.01790 | 13240 ft | 343 kts | 38° |
| 2026-04-22 17:47 | 50.00962 | -1.99811 | 13241 ft | 344 kts | 26° |
| 2026-04-22 17:47 | 50.03155 | -1.98312 | 13244 ft | 345 kts | 24° |
| 2026-04-22 17:47 | 50.05358 | -1.96828 | 13251 ft | 345 kts | 24° |
| 2026-04-22 17:48 | 50.07561 | -1.95343 | 13249 ft | 345 kts | 24° |
| 2026-04-22 17:48 | 50.09761 | -1.93856 | 13251 ft | 345 kts | 24° |
| 2026-04-22 17:48 | 50.11967 | -1.92360 | 13251 ft | 345 kts | 24° |
| 2026-04-22 17:48 | 50.14171 | -1.90858 | 13261 ft | 345 kts | 24° |
| 2026-04-22 17:49 | 50.16373 | -1.89358 | 13261 ft | 345 kts | 25° |
| 2026-04-22 17:49 | 50.18574 | -1.87857 | 13260 ft | 345 kts | 24° |
| 2026-04-22 17:49 | 50.20774 | -1.86355 | 13260 ft | 345 kts | 25° |
| 2026-04-22 17:49 | 50.22965 | -1.84860 | 13145 ft | 341 kts | 25° |
| 2026-04-22 17:50 | 50.25091 | -1.83410 | 12886 ft | 332 kts | 26° |
| 2026-04-22 17:50 | 50.27190 | -1.81982 | 12627 ft | 325 kts | 26° |
| 2026-04-22 17:50 | 50.29245 | -1.80581 | 12343 ft | 320 kts | 26° |
| 2026-04-22 17:50 | 50.31274 | -1.79194 | 12048 ft | 315 kts | 27° |
| 2026-04-22 17:51 | 50.33255 | -1.77838 | 11877 ft | 308 kts | 28° |
| 2026-04-22 17:51 | 50.35209 | -1.76496 | 11545 ft | 306 kts | 27° |
| 2026-04-22 17:51 | 50.37153 | -1.75160 | 11209 ft | 305 kts | 28° |
| 2026-04-22 17:51 | 50.39093 | -1.73824 | 10857 ft | 304 kts | 30° |
| 2026-04-22 17:52 | 50.41029 | -1.72491 | 10541 ft | 303 kts | 28° |
| 2026-04-22 17:52 | 50.42952 | -1.71170 | 10192 ft | 300 kts | 27° |
| 2026-04-22 17:52 | 50.44854 | -1.69862 | 9523 ft | 298 kts | 27° |
| 2026-04-22 17:52 | 50.46718 | -1.68577 | 8894 ft | 294 kts | 30° |
| 2026-04-22 17:53 | 50.48567 | -1.67303 | 8422 ft | 285 kts | 29° |
| 2026-04-22 17:53 | 50.50350 | -1.66072 | 8050 ft | 275 kts | 28° |
| 2026-04-22 17:53 | 50.52059 | -1.64845 | 7687 ft | 265 kts | 28° |
| 2026-04-22 17:53 | 50.53699 | -1.63635 | 7350 ft | 258 kts | 31° |
| 2026-04-22 17:54 | 50.55318 | -1.62428 | 7008 ft | 257 kts | 29° |
| 2026-04-22 17:54 | 50.56928 | -1.61227 | 6661 ft | 256 kts | 32° |
| 2026-04-22 17:54 | 50.58537 | -1.60025 | 6312 ft | 257 kts | 32° |
| 2026-04-22 17:54 | 50.60166 | -1.58805 | 5802 ft | 265 kts | 32° |
| 2026-04-22 17:55 | 50.61282 | -1.57967 | 5467 ft | 270 kts | 32° |
| 2026-04-22 17:55 | 50.63563 | -1.56267 | 5142 ft | 272 kts | 30° |
| 2026-04-22 17:55 | 50.65273 | -1.54998 | 4900 ft | 271 kts | 30° |
| 2026-04-22 17:55 | 50.66970 | -1.53745 | 4666 ft | 268 kts | 29° |
| 2026-04-22 17:56 | 50.68649 | -1.52502 | 4434 ft | 266 kts | 30° |
| 2026-04-22 17:56 | 50.70308 | -1.51270 | 4200 ft | 261 kts | 30° |
| 2026-04-22 17:56 | 50.71942 | -1.50056 | 3970 ft | 257 kts | 30° |
| 2026-04-22 17:56 | 50.73527 | -1.48880 | 3745 ft | 253 kts | 30° |
| 2026-04-22 17:57 | 50.75101 | -1.47711 | 3529 ft | 246 kts | 31° |
| 2026-04-22 17:57 | 50.76603 | -1.46600 | 3331 ft | 230 kts | 31° |
| 2026-04-22 17:57 | 50.77988 | -1.45581 | 3223 ft | 209 kts | 31° |
| 2026-04-22 17:57 | 50.79272 | -1.44634 | 3138 ft | 200 kts | 32° |
| 2026-04-22 17:58 | 50.80483 | -1.43806 | 3060 ft | 181 kts | 26° |
| 2026-04-22 17:58 | 50.81649 | -1.43161 | 2764 ft | 173 kts | 27° |
| 2026-04-22 17:58 | 50.82753 | -1.42545 | 2525 ft | 164 kts | 27° |
| 2026-04-22 17:58 | 50.83794 | -1.41963 | 2292 ft | 158 kts | 27° |
| 2026-04-22 17:59 | 50.84823 | -1.41388 | 2077 ft | 157 kts | 27° |
| 2026-04-22 17:59 | 50.85844 | -1.40816 | 1881 ft | 151 kts | 27° |
| 2026-04-22 17:59 | 50.86788 | -1.40298 | 1670 ft | 134 kts | 28° |
| 2026-04-22 17:59 | 50.87625 | -1.39847 | 1451 ft | 126 kts | 28° |
| 2026-04-22 18:00 | 50.88182 | -1.39538 | 1307 ft | 125 kts | 28° |
| 2026-04-22 18:00 | 50.89269 | -1.38930 | 1031 ft | 126 kts | 26° |
| 2026-04-22 18:00 | 50.90084 | -1.38476 | 879 ft | 123 kts | 28° |
| 2026-04-22 18:00 | 50.90892 | -1.38001 | 776 ft | 124 kts | 27° |
| 2026-04-22 18:01 | 50.91708 | -1.37529 | 647 ft | 126 kts | 28° |
| 2026-04-22 18:01 | 50.92530 | -1.37072 | 525 ft | 127 kts | 25° |
| 2026-04-22 18:01 | 50.93375 | -1.36583 | 326 ft | 129 kts | 25° |
| 2026-04-22 18:01 | 50.94210 | -1.36140 | 111 ft | 124 kts | 25° |
| 2026-04-22 18:02 | 50.94962 | -1.35707 | 38 ft | 91 kts | 18° |
| 2026-04-22 18:02 | 50.95287 | -1.35546 | 40 ft | 12 kts | 359° |
| 2026-04-22 18:02 | 50.95293 | -1.35524 | 38 ft | 1 kts | 184° |
| 2026-04-22 18:02 | 50.95232 | -1.35565 | 40 ft | 18 kts | 198° |
| 2026-04-22 18:03 | 50.95092 | -1.35643 | 40 ft | 24 kts | 199° |
| 2026-04-22 18:03 | 50.95030 | -1.35754 | 40 ft | 13 kts | 302° |
| 2026-04-22 18:03 | 50.95043 | -1.35912 | 38 ft | 15 kts | 232° |
| 2026-04-22 18:03 | 50.94939 | -1.35985 | 37 ft | 18 kts | 199° |
| 2026-04-22 18:04 | 50.94897 | -1.36064 | 39 ft | 7 kts | 277° |
| 2026-04-22 18:04 | 50.94936 | -1.36069 | 39 ft | 8 kts | 17° |
| 2026-04-22 18:04 | 50.94958 | -1.36057 | 39 ft | 0 kts | 19° |
| 2026-04-22 18:04 | 50.94959 | -1.36057 | 39 ft | 0 kts | 19° |